createdAt,value
2019-02-28T00:01:12.852Z,4.70
2019-02-28T00:03:42.467Z,4.70
2019-02-28T00:06:12.782Z,4.70
2019-02-28T00:08:42.339Z,4.70
2019-02-28T00:11:11.791Z,4.70
2019-02-28T00:13:41.253Z,4.60
2019-02-28T00:16:10.688Z,4.60
2019-02-28T00:18:40.229Z,4.60
2019-02-28T00:21:09.707Z,4.60
2019-02-28T00:23:39.135Z,4.60
2019-02-28T00:26:11.279Z,4.60
2019-02-28T00:28:39.728Z,4.50
2019-02-28T00:31:09.191Z,4.50
2019-02-28T00:33:38.651Z,4.50
2019-02-28T00:36:08.148Z,4.50
2019-02-28T00:38:37.624Z,4.50
2019-02-28T00:41:09.323Z,4.50
2019-02-28T00:43:38.307Z,4.40
2019-02-28T00:46:09.999Z,4.40
2019-02-28T00:48:38.948Z,4.30
2019-02-28T00:51:08.515Z,4.20
2019-02-28T00:53:38.838Z,4.20
2019-02-28T00:56:08.313Z,4.10
2019-02-28T00:58:37.744Z,4.00
2019-02-28T01:01:08.368Z,3.90
2019-02-28T01:03:38.347Z,3.90
2019-02-28T01:06:10.503Z,3.80
2019-02-28T01:08:39.010Z,3.80
2019-02-28T01:11:10.335Z,3.70
2019-02-28T01:13:39.607Z,3.60
2019-02-28T01:16:09.071Z,3.50
2019-02-28T01:18:38.536Z,3.40
2019-02-28T01:21:07.987Z,3.30
2019-02-28T01:23:37.452Z,3.30
2019-02-28T01:26:07.841Z,3.30
2019-02-28T01:28:37.304Z,3.20
2019-02-28T01:31:06.755Z,3.20
2019-02-28T01:33:36.249Z,3.10
2019-02-28T01:36:05.719Z,3.20
2019-02-28T01:38:35.154Z,3.20
2019-02-28T01:41:04.599Z,3.20
2019-02-28T01:43:34.055Z,3.20
2019-02-28T01:46:03.503Z,3.20
2019-02-28T01:48:33.016Z,3.20
2019-02-28T01:51:02.493Z,3.20
2019-02-28T01:53:31.940Z,3.30
2019-02-28T01:56:02.500Z,3.30
2019-02-28T01:58:32.544Z,3.30
2019-02-28T02:01:01.987Z,3.20
2019-02-28T02:03:31.489Z,3.20
2019-02-28T02:06:00.921Z,3.20
2019-02-28T02:08:30.361Z,3.10
2019-02-28T02:10:59.819Z,3.10
2019-02-28T02:13:29.256Z,3.10
2019-02-28T02:15:58.695Z,3.10
2019-02-28T02:18:28.216Z,3.10
2019-02-28T02:21:00.137Z,3.10
2019-02-28T02:23:28.763Z,3.20
2019-02-28T02:25:58.211Z,3.30
2019-02-28T02:28:27.880Z,3.40
2019-02-28T02:30:57.464Z,3.50
2019-02-28T02:33:26.917Z,3.60
2019-02-28T02:35:56.352Z,3.80
2019-02-28T02:38:25.793Z,3.90
2019-02-28T02:40:59.431Z,4.10
2019-02-28T02:43:26.404Z,4.20
2019-02-28T02:45:55.848Z,4.30
2019-02-28T02:48:25.386Z,4.40
2019-02-28T02:50:54.850Z,4.40
2019-02-28T02:53:24.368Z,4.50
2019-02-28T02:55:53.864Z,4.40
2019-02-28T02:58:27.212Z,4.40
2019-02-28T03:00:54.441Z,4.40
2019-02-28T03:03:23.897Z,4.40
2019-02-28T03:05:53.369Z,4.40
2019-02-28T03:08:22.899Z,4.40
2019-02-28T03:10:53.174Z,4.40
2019-02-28T03:13:22.696Z,4.40
2019-02-28T03:15:52.139Z,4.40
2019-02-28T03:18:21.829Z,4.40
2019-02-28T03:20:51.359Z,4.40
2019-02-28T03:23:20.807Z,4.40
2019-02-28T03:25:50.348Z,4.30
2019-02-28T03:28:19.784Z,4.40
2019-02-28T03:30:49.245Z,4.40
2019-02-28T03:33:27.243Z,4.40
2019-02-28T03:35:49.808Z,4.40
2019-02-28T03:38:19.258Z,4.40
2019-02-28T03:40:48.737Z,4.40
2019-02-28T03:43:18.243Z,4.40
2019-02-28T03:45:47.703Z,4.30
2019-02-28T03:48:17.198Z,4.30
2019-02-28T03:50:46.635Z,4.30
2019-02-28T03:53:19.639Z,4.40
2019-02-28T03:55:47.233Z,4.40
2019-02-28T03:58:16.672Z,4.40
2019-02-28T04:00:46.425Z,4.30
2019-02-28T04:03:15.886Z,4.30
2019-02-28T04:05:45.348Z,4.40
2019-02-28T04:08:14.804Z,4.40
2019-02-28T04:10:44.412Z,4.40
2019-02-28T04:13:13.843Z,4.40
2019-02-28T04:16:01.483Z,4.40
2019-02-28T04:18:14.400Z,4.40
2019-02-28T04:20:43.851Z,4.40
2019-02-28T04:23:13.280Z,4.40
2019-02-28T04:25:42.800Z,4.50
2019-02-28T04:28:16.858Z,4.50
2019-02-28T04:30:44.059Z,4.50
2019-02-28T04:33:13.971Z,4.50
2019-02-28T04:35:43.532Z,4.50
2019-02-28T04:38:12.983Z,4.50
2019-02-28T04:40:42.528Z,4.50
2019-02-28T04:43:12.020Z,4.50
2019-02-28T04:45:41.449Z,4.60
2019-02-28T04:48:13.700Z,4.60
2019-02-28T04:50:42.039Z,4.60
2019-02-28T04:53:11.499Z,4.60
2019-02-28T04:55:40.947Z,4.60
2019-02-28T04:58:10.475Z,4.60
2019-02-28T05:00:39.906Z,4.60
2019-02-28T05:03:09.369Z,4.70
2019-02-28T05:05:38.817Z,4.70
2019-02-28T05:08:08.275Z,4.70
2019-02-28T05:10:37.763Z,4.70
2019-02-28T05:13:07.225Z,4.70
2019-02-28T05:15:38.677Z,4.70
2019-02-28T05:18:07.847Z,4.70
2019-02-28T05:20:37.374Z,4.70
2019-02-28T05:23:06.787Z,4.70
2019-02-28T05:25:36.291Z,4.70
2019-02-28T05:28:06.759Z,4.80
2019-02-28T05:30:36.863Z,4.80
2019-02-28T05:33:07.383Z,4.80
2019-02-28T05:35:37.129Z,4.80
2019-02-28T05:38:06.632Z,4.80
2019-02-28T05:40:40.359Z,4.80
2019-02-28T05:43:07.175Z,4.80
2019-02-28T05:45:36.621Z,4.80
2019-02-28T05:48:06.110Z,4.80
2019-02-28T05:50:35.568Z,4.80
2019-02-28T05:53:06.263Z,4.80
2019-02-28T05:55:36.171Z,4.80
2019-02-28T05:58:05.639Z,4.80
2019-02-28T06:00:37.071Z,4.80
2019-02-28T06:03:07.091Z,4.80
2019-02-28T06:05:36.535Z,4.90
2019-02-28T06:08:06.007Z,4.80
2019-02-28T06:10:35.471Z,4.80
2019-02-28T06:13:04.979Z,4.90
2019-02-28T06:15:37.165Z,4.90
2019-02-28T06:18:05.579Z,4.80
2019-02-28T06:20:35.042Z,4.90
2019-02-28T06:23:06.353Z,4.90
2019-02-28T06:25:35.628Z,4.90
2019-02-28T06:28:05.189Z,4.90
2019-02-28T06:30:34.637Z,4.90
2019-02-28T06:33:04.117Z,4.90
2019-02-28T06:35:33.553Z,4.90
2019-02-28T06:38:03.060Z,4.90
2019-02-28T06:40:33.105Z,4.90
2019-02-28T06:43:03.540Z,4.90
2019-02-28T06:45:36.660Z,4.90
2019-02-28T06:48:04.152Z,4.90
2019-02-28T06:50:33.598Z,4.90
2019-02-28T06:53:03.052Z,4.90
2019-02-28T06:55:32.540Z,4.90
2019-02-28T06:58:02.004Z,4.90
2019-02-28T07:00:31.464Z,4.90
2019-02-28T07:03:03.408Z,4.90
2019-02-28T07:05:32.134Z,4.90
2019-02-28T07:08:01.581Z,4.90
2019-02-28T07:10:31.075Z,4.90
2019-02-28T07:13:04.272Z,4.90
2019-02-28T07:15:31.630Z,4.90
2019-02-28T07:18:01.142Z,5.00
2019-02-28T07:20:30.600Z,5.00
2019-02-28T07:23:00.056Z,5.10
2019-02-28T07:25:29.536Z,5.10
2019-02-28T07:28:01.574Z,5.10
2019-02-28T07:30:30.076Z,5.10
2019-02-28T07:32:59.537Z,5.10
2019-02-28T07:35:32.690Z,5.10
2019-02-28T07:38:00.127Z,5.10
2019-02-28T07:40:29.624Z,5.10
2019-02-28T07:42:59.053Z,5.00
2019-02-28T07:45:29.603Z,5.00
2019-02-28T07:47:59.643Z,5.00
2019-02-28T07:50:29.088Z,5.00
2019-02-28T07:52:58.556Z,5.00
2019-02-28T07:55:30.520Z,5.00
2019-02-28T07:57:59.127Z,4.90
2019-02-28T08:00:28.609Z,5.00
2019-02-28T08:02:58.115Z,5.00
2019-02-28T08:05:31.016Z,5.10
2019-02-28T08:07:58.760Z,5.20
2019-02-28T08:10:28.387Z,5.20
2019-02-28T08:12:57.942Z,5.30
2019-02-28T08:15:27.389Z,5.30
2019-02-28T08:18:00.361Z,5.30
2019-02-28T08:20:30.642Z,5.20
2019-02-28T08:23:00.878Z,5.20
2019-02-28T08:25:30.370Z,5.30
2019-02-28T08:28:00.891Z,5.30
2019-02-28T08:30:30.404Z,5.30
2019-02-28T08:32:59.915Z,5.40
2019-02-28T08:35:34.252Z,5.40
2019-02-28T08:38:00.457Z,5.50
2019-02-28T08:40:30.047Z,5.50
2019-02-28T08:43:00.604Z,5.50
2019-02-28T08:45:33.507Z,5.60
2019-02-28T08:48:01.184Z,5.60
2019-02-28T08:50:30.641Z,5.70
2019-02-28T08:53:00.111Z,5.70
2019-02-28T08:55:29.612Z,5.70
2019-02-28T08:58:05.307Z,5.80
2019-02-28T09:00:32.570Z,5.80
2019-02-28T09:03:01.320Z,5.90
2019-02-28T09:05:30.803Z,5.90
2019-02-28T09:08:01.144Z,6.00
2019-02-28T09:10:30.604Z,6.10
2019-02-28T09:13:00.042Z,6.20
2019-02-28T09:15:31.115Z,6.20
2019-02-28T09:18:00.704Z,6.30
2019-02-28T09:20:30.155Z,6.30
2019-02-28T09:23:02.108Z,6.40
2019-02-28T09:25:30.829Z,6.50
2019-02-28T09:28:00.316Z,6.50
2019-02-28T09:30:32.423Z,6.60
2019-02-28T09:33:02.408Z,6.70
2019-02-28T09:35:31.835Z,6.80
2019-02-28T09:38:06.301Z,6.80
2019-02-28T09:40:32.603Z,6.90
2019-02-28T09:43:02.161Z,7.00
2019-02-28T09:45:31.618Z,7.10
2019-02-28T09:48:02.246Z,7.10
2019-02-28T09:50:33.310Z,7.20
2019-02-28T09:53:02.872Z,7.30
2019-02-28T09:55:35.343Z,7.40
2019-02-28T09:58:04.083Z,7.40
2019-02-28T10:00:33.522Z,7.50
2019-02-28T10:03:03.022Z,7.60
2019-02-28T10:05:32.455Z,7.60
2019-02-28T10:08:03.078Z,7.70
2019-02-28T10:10:33.347Z,7.80
2019-02-28T10:13:02.796Z,7.80
2019-02-28T10:15:32.241Z,7.80
2019-02-28T10:18:04.370Z,7.90
2019-02-28T10:20:32.827Z,7.90
2019-02-28T10:23:02.287Z,8.00
2019-02-28T10:25:31.795Z,8.10
2019-02-28T10:28:02.671Z,8.20
2019-02-28T10:30:32.802Z,8.20
2019-02-28T10:33:02.520Z,8.30
2019-02-28T10:35:33.531Z,8.30
2019-02-28T10:38:03.088Z,8.40
2019-02-28T10:40:32.551Z,8.50
2019-02-28T10:43:01.997Z,8.60
2019-02-28T10:45:31.449Z,8.60
2019-02-28T10:48:03.926Z,8.70
2019-02-28T10:50:33.647Z,8.70
2019-02-28T10:53:05.566Z,8.70
2019-02-28T10:55:34.671Z,8.80
2019-02-28T10:58:04.163Z,8.80
2019-02-28T11:00:34.483Z,8.90
2019-02-28T11:03:04.112Z,8.90
2019-02-28T11:05:34.421Z,8.90
2019-02-28T11:08:05.029Z,9.00
2019-02-28T11:10:37.259Z,9.00
2019-02-28T11:13:09.832Z,9.00
2019-02-28T11:15:39.389Z,9.10
2019-02-28T11:18:09.928Z,9.10
2019-02-28T11:20:41.243Z,9.20
2019-02-28T11:23:14.782Z,9.20
2019-02-28T11:25:43.088Z,9.20
2019-02-28T11:28:13.629Z,9.30
2019-02-28T11:30:45.415Z,9.30
2019-02-28T11:33:15.635Z,9.30
2019-02-28T11:35:45.095Z,9.40
2019-02-28T11:38:20.479Z,9.30
2019-02-28T11:40:46.357Z,9.40
2019-02-28T11:43:15.830Z,9.40
2019-02-28T11:45:45.609Z,9.40
2019-02-28T11:48:18.883Z,9.50
2019-02-28T11:50:46.409Z,9.50
2019-02-28T11:53:15.876Z,9.50
2019-02-28T11:55:45.364Z,9.50
2019-02-28T11:58:17.674Z,9.50
2019-02-28T12:00:45.983Z,9.50
2019-02-28T12:03:15.525Z,9.60
2019-02-28T12:05:49.867Z,9.60
2019-02-28T12:08:16.103Z,9.60
2019-02-28T12:10:45.571Z,9.60
2019-02-28T12:13:16.573Z,9.60
2019-02-28T12:15:47.245Z,9.70
2019-02-28T12:18:16.831Z,9.70
2019-02-28T12:20:46.424Z,9.80
2019-02-28T12:23:16.031Z,9.80
2019-02-28T12:25:45.485Z,9.80
2019-02-28T12:28:14.991Z,9.80
2019-02-28T12:30:44.498Z,9.80
2019-02-28T12:33:15.369Z,9.80
2019-02-28T12:35:45.027Z,9.80
2019-02-28T12:38:14.496Z,9.80
2019-02-28T12:40:45.697Z,9.80
2019-02-28T12:43:15.230Z,9.70
2019-02-28T12:45:47.109Z,9.80
2019-02-28T12:48:16.063Z,9.80
2019-02-28T12:50:45.560Z,9.80
2019-02-28T12:53:15.033Z,9.70
2019-02-28T12:55:44.495Z,9.70
2019-02-28T12:58:14.084Z,9.80
2019-02-28T13:00:43.612Z,9.80
2019-02-28T13:03:19.213Z,9.70
2019-02-28T13:05:48.175Z,9.70
2019-02-28T13:08:15.533Z,9.70
2019-02-28T13:10:44.979Z,9.70
2019-02-28T13:13:14.421Z,9.70
2019-02-28T13:15:45.433Z,9.60
2019-02-28T13:18:15.131Z,9.70
2019-02-28T13:20:44.581Z,9.60
2019-02-28T13:23:14.077Z,9.60
2019-02-28T13:25:43.548Z,9.50
2019-02-28T13:28:12.966Z,9.50
2019-02-28T13:30:48.994Z,9.50
2019-02-28T13:33:14.930Z,9.40
2019-02-28T13:35:47.332Z,9.50
2019-02-28T13:38:19.136Z,9.40
2019-02-28T13:40:47.227Z,9.40
2019-02-28T13:43:20.974Z,9.40
2019-02-28T13:45:50.584Z,9.30
2019-02-28T13:48:26.178Z,9.30
2019-02-28T13:50:50.058Z,9.20
2019-02-28T13:53:19.729Z,9.20
2019-02-28T13:55:52.751Z,9.20
2019-02-28T13:58:21.556Z,9.20
2019-02-28T14:00:51.516Z,9.20
2019-02-28T14:03:20.970Z,9.20
2019-02-28T14:05:51.659Z,9.20
2019-02-28T14:08:21.159Z,9.20
2019-02-28T14:10:51.420Z,9.10
2019-02-28T14:13:20.894Z,9.10
2019-02-28T14:15:52.682Z,9.10
2019-02-28T14:18:21.557Z,9.10
2019-02-28T14:20:51.024Z,9.00
2019-02-28T14:23:21.529Z,9.00
2019-02-28T14:25:51.191Z,8.90
2019-02-28T14:28:20.620Z,8.80
2019-02-28T14:30:50.118Z,8.80
2019-02-28T14:33:20.749Z,8.70
2019-02-28T14:35:50.529Z,8.70
2019-02-28T14:38:20.042Z,8.60
2019-02-28T14:40:52.473Z,8.60
2019-02-28T14:43:20.778Z,8.50
2019-02-28T14:45:50.476Z,8.50
2019-02-28T14:48:19.907Z,8.40
2019-02-28T14:50:50.519Z,8.30
2019-02-28T14:53:20.618Z,8.20
2019-02-28T14:55:50.231Z,8.20
2019-02-28T14:58:21.156Z,8.10
2019-02-28T15:00:51.288Z,8.10
2019-02-28T15:03:20.743Z,8.00
2019-02-28T15:05:52.434Z,8.00
2019-02-28T15:08:22.585Z,7.90
2019-02-28T15:10:53.261Z,7.80
2019-02-28T15:13:22.992Z,7.80
2019-02-28T15:15:53.167Z,7.70
2019-02-28T15:18:26.596Z,7.70
2019-02-28T15:20:56.186Z,7.60
2019-02-28T15:23:25.745Z,7.60
2019-02-28T15:25:55.647Z,7.50
2019-02-28T15:28:25.775Z,7.40
2019-02-28T15:30:56.612Z,7.40
2019-02-28T15:33:27.463Z,7.30
2019-02-28T15:35:57.297Z,7.20
2019-02-28T15:38:28.084Z,7.10
2019-02-28T15:40:58.835Z,7.10
2019-02-28T15:43:32.005Z,7.00
2019-02-28T15:46:01.452Z,6.90
2019-02-28T15:48:31.350Z,6.80
2019-02-28T15:51:03.399Z,6.80
2019-02-28T15:53:33.067Z,6.70
2019-02-28T15:56:02.507Z,6.60
2019-02-28T15:58:31.956Z,6.50
2019-02-28T16:01:01.412Z,6.40
2019-02-28T16:03:30.879Z,6.30
2019-02-28T16:06:00.342Z,6.20
2019-02-28T16:08:29.868Z,6.20
2019-02-28T16:11:03.227Z,6.00
2019-02-28T16:13:32.084Z,6.00
2019-02-28T16:16:01.512Z,5.90
2019-02-28T16:18:30.970Z,5.80
2019-02-28T16:21:03.592Z,5.70
2019-02-28T16:23:31.590Z,5.70
2019-02-28T16:26:01.036Z,5.60
2019-02-28T16:28:30.495Z,5.50
2019-02-28T16:30:59.955Z,5.40
2019-02-28T16:33:29.415Z,5.30
2019-02-28T16:35:58.844Z,5.20
2019-02-28T16:38:28.348Z,5.20
2019-02-28T16:41:00.739Z,5.10
2019-02-28T16:43:33.916Z,5.00
2019-02-28T16:46:03.204Z,4.90
2019-02-28T16:48:33.497Z,4.80
2019-02-28T16:51:03.840Z,4.70
2019-02-28T16:53:33.285Z,4.50
2019-02-28T16:56:05.610Z,4.40
2019-02-28T16:58:33.875Z,4.30
2019-02-28T17:01:03.329Z,4.30
2019-02-28T17:03:32.816Z,4.20
2019-02-28T17:06:02.348Z,4.20
2019-02-28T17:08:36.008Z,4.10
2019-02-28T17:11:05.476Z,4.00
2019-02-28T17:13:39.486Z,3.90
2019-02-28T17:16:26.321Z,3.90
2019-02-28T17:18:56.703Z,3.80
2019-02-28T17:21:26.847Z,3.70
2019-02-28T17:23:56.275Z,3.60
2019-02-28T17:26:47.570Z,3.60
2019-02-28T17:29:34.484Z,3.50
2019-02-28T17:32:04.714Z,3.40
2019-02-28T17:34:34.167Z,3.30
2019-02-28T17:37:03.638Z,3.20
2019-02-28T17:39:33.336Z,3.20
2019-02-28T17:42:08.576Z,3.10
2019-02-28T17:44:55.498Z,3.00
2019-02-28T17:48:24.628Z,3.00
2019-02-28T17:51:32.252Z,3.00
2019-02-28T17:54:45.708Z,3.00
2019-02-28T17:57:55.371Z,2.90
2019-02-28T18:01:12.119Z,2.90
2019-02-28T18:04:27.229Z,2.80
2019-02-28T18:07:31.760Z,2.80
2019-02-28T18:10:45.163Z,2.70
2019-02-28T18:13:42.187Z,2.70
2019-02-28T18:16:49.235Z,2.70
2019-02-28T18:19:41.201Z,2.70
2019-02-28T18:22:36.299Z,2.70
2019-02-28T18:25:48.674Z,2.70
2019-02-28T18:28:31.752Z,2.60
2019-02-28T18:31:22.183Z,2.60
2019-02-28T18:34:11.827Z,2.60
2019-02-28T18:36:43.393Z,2.50
2019-02-28T18:39:12.492Z,2.50
2019-02-28T18:41:42.984Z,2.50
2019-02-28T18:44:12.853Z,2.50
2019-02-28T18:46:42.315Z,2.50
2019-02-28T18:49:11.762Z,2.50
2019-02-28T18:51:41.304Z,2.50
2019-02-28T18:54:11.365Z,2.50
2019-02-28T18:56:40.832Z,2.50
2019-02-28T18:59:10.382Z,2.50
2019-02-28T19:01:39.860Z,2.50
2019-02-28T19:04:09.376Z,2.40
2019-02-28T19:06:38.887Z,2.40
2019-02-28T19:09:22.821Z,2.30
2019-02-28T19:11:52.298Z,2.30
2019-02-28T19:14:21.780Z,2.20
2019-02-28T19:16:51.228Z,2.20
2019-02-28T19:19:20.752Z,2.10
2019-02-28T19:21:50.203Z,2.10
2019-02-28T19:24:19.623Z,2.00
2019-02-28T19:26:49.179Z,2.00
2019-02-28T19:29:18.671Z,1.90
2019-02-28T19:31:48.107Z,1.80
2019-02-28T19:34:17.672Z,1.80
2019-02-28T19:36:47.179Z,1.70
2019-02-28T19:39:16.719Z,1.60
2019-02-28T19:41:46.238Z,1.60
2019-02-28T19:44:15.869Z,1.50
2019-02-28T19:46:45.406Z,1.50
2019-02-28T19:49:14.891Z,1.40
2019-02-28T19:51:44.360Z,1.40
2019-02-28T19:54:13.803Z,1.30
2019-02-28T19:56:43.331Z,1.30
2019-02-28T19:59:12.806Z,1.30
2019-02-28T20:01:42.407Z,1.20
2019-02-28T20:04:11.856Z,1.20
2019-02-28T20:06:41.260Z,1.20
2019-02-28T20:09:11.147Z,1.20
2019-02-28T20:11:40.650Z,1.10
2019-02-28T20:14:10.100Z,1.10
2019-02-28T20:16:39.572Z,1.00
2019-02-28T20:19:09.088Z,1.00
2019-02-28T20:21:38.653Z,0.90
2019-02-28T20:24:08.779Z,0.90
2019-02-28T20:26:38.292Z,0.80
2019-02-28T20:29:07.720Z,0.80
2019-02-28T20:31:37.167Z,0.70
2019-02-28T20:34:14.449Z,0.70
2019-02-28T20:36:44.000Z,0.70
2019-02-28T20:39:14.073Z,0.70
2019-02-28T20:41:43.504Z,0.70
2019-02-28T20:44:12.957Z,0.70
2019-02-28T20:46:42.407Z,0.80
2019-02-28T20:49:11.843Z,0.80
2019-02-28T20:51:42.107Z,0.80
2019-02-28T20:54:11.559Z,0.80
2019-02-28T20:56:41.012Z,0.90
2019-02-28T20:59:10.440Z,0.90
2019-02-28T21:01:39.945Z,0.80
2019-02-28T21:04:09.387Z,0.80
2019-02-28T21:06:38.847Z,0.80
2019-02-28T21:09:09.615Z,0.80
2019-02-28T21:11:39.067Z,0.80
2019-02-28T21:14:08.519Z,0.80
2019-02-28T21:16:37.967Z,0.80
2019-02-28T21:19:07.447Z,0.80
2019-02-28T21:21:36.889Z,0.70
2019-02-28T21:24:06.421Z,0.70
2019-02-28T21:26:35.899Z,0.70
2019-02-28T21:29:05.414Z,0.70
2019-02-28T21:31:34.891Z,0.60
2019-02-28T21:34:04.536Z,0.60
2019-02-28T21:36:34.155Z,0.60
2019-02-28T21:39:04.447Z,0.60
2019-02-28T21:41:33.908Z,0.50
2019-02-28T21:44:03.401Z,0.50
2019-02-28T21:46:32.888Z,0.40
2019-02-28T21:49:02.361Z,0.40
2019-02-28T21:51:31.775Z,0.40
2019-02-28T21:54:01.235Z,0.40
2019-02-28T21:56:30.682Z,0.40
2019-02-28T21:59:00.154Z,0.40
2019-02-28T22:01:29.598Z,0.40
2019-02-28T22:03:59.039Z,0.40
2019-02-28T22:06:28.552Z,0.40
2019-02-28T22:08:58.000Z,0.40
2019-02-28T22:11:27.452Z,0.40
2019-02-28T22:13:56.920Z,0.50
2019-02-28T22:16:26.393Z,0.50
2019-02-28T22:18:55.826Z,0.50
2019-02-28T22:21:25.296Z,0.50
2019-02-28T22:23:54.825Z,0.50
2019-02-28T22:26:24.501Z,0.50
2019-02-28T22:28:53.923Z,0.50
2019-02-28T22:31:37.161Z,0.50
2019-02-28T22:34:34.511Z,0.50
2019-02-28T22:37:03.967Z,0.50
2019-02-28T22:39:33.439Z,0.50
2019-02-28T22:42:02.880Z,0.50
2019-02-28T22:44:32.439Z,0.40
2019-02-28T22:47:01.909Z,0.40
2019-02-28T22:49:31.353Z,0.40
2019-02-28T22:52:00.880Z,0.40
2019-02-28T22:54:30.313Z,0.30
2019-02-28T22:56:59.762Z,0.30
2019-02-28T22:59:29.298Z,0.30
2019-02-28T23:01:58.836Z,0.30
2019-02-28T23:04:28.293Z,0.30
2019-02-28T23:06:57.787Z,0.30
2019-02-28T23:09:27.284Z,0.30
2019-02-28T23:11:56.736Z,0.30
2019-02-28T23:14:26.165Z,0.20
2019-02-28T23:16:55.624Z,0.20
2019-02-28T23:19:25.059Z,0.20
2019-02-28T23:21:54.531Z,0.20
2019-02-28T23:24:23.992Z,0.10
2019-02-28T23:27:13.449Z,0.10
2019-02-28T23:30:04.095Z,0.10
2019-02-28T23:32:43.612Z,0.10
2019-02-28T23:35:17.238Z,0.10
2019-02-28T23:37:46.671Z,0.00
2019-02-28T23:40:16.093Z,0.00
2019-02-28T23:42:45.554Z,0.00
2019-02-28T23:45:14.977Z,-0.10
2019-02-28T23:47:44.431Z,-0.10
2019-02-28T23:50:15.036Z,-0.10
2019-02-28T23:52:44.943Z,-0.10
2019-02-28T23:55:14.402Z,-0.20
2019-02-28T23:57:43.856Z,-0.20
